createdAt,value
2019-03-05T00:00:40.186Z,69.48
2019-03-05T00:01:40.468Z,69.38
2019-03-05T00:02:40.225Z,69.32
2019-03-05T00:03:40.509Z,69.29
2019-03-05T00:04:40.261Z,69.42
2019-03-05T00:05:40.547Z,69.42
2019-03-05T00:06:40.304Z,69.38
2019-03-05T00:07:40.586Z,69.38
2019-03-05T00:08:40.605Z,69.57
2019-03-05T00:09:40.356Z,69.38
2019-03-05T00:10:40.643Z,69.48
2019-03-05T00:11:40.391Z,69.38
2019-03-05T00:12:40.674Z,69.48
2019-03-05T00:13:40.696Z,69.38
2019-03-05T00:14:40.450Z,69.38
2019-03-05T00:15:40.736Z,69.38
2019-03-05T00:16:40.493Z,69.29
2019-03-05T00:17:40.771Z,69.76
2019-03-05T00:18:40.525Z,69.48
2019-03-05T00:19:40.809Z,69.48
2019-03-05T00:20:40.564Z,69.85
2019-03-05T00:21:40.582Z,69.85
2019-03-05T00:22:40.863Z,69.95
2019-03-05T00:23:40.621Z,69.85
2019-03-05T00:24:40.902Z,69.95
2019-03-05T00:25:40.656Z,69.76
2019-03-05T00:26:40.937Z,69.76
2019-03-05T00:27:40.694Z,69.85
2019-03-05T00:28:40.978Z,69.85
2019-03-05T00:29:41.244Z,69.76
2019-03-05T00:30:40.750Z,69.76
2019-03-05T00:31:41.037Z,69.95
2019-03-05T00:32:40.791Z,69.85
2019-03-05T00:33:41.072Z,69.85
2019-03-05T00:34:40.827Z,69.67
2019-03-05T00:35:41.110Z,69.76
2019-03-05T00:36:41.127Z,69.85
2019-03-05T00:37:40.883Z,69.67
2019-03-05T00:38:41.268Z,69.76
2019-03-05T00:39:40.921Z,69.38
2019-03-05T00:40:40.939Z,69.48
2019-03-05T00:41:40.959Z,69.85
2019-03-05T00:42:40.979Z,69.67
2019-03-05T00:43:40.996Z,69.67
2019-03-05T00:44:41.015Z,69.76
2019-03-05T00:45:41.315Z,69.48
2019-03-05T00:46:41.055Z,69.76
2019-03-05T00:47:41.337Z,69.95
2019-03-05T00:48:41.097Z,69.57
2019-03-05T00:49:41.260Z,69.67
2019-03-05T00:50:41.127Z,69.48
2019-03-05T00:51:41.411Z,70.05
2019-03-05T00:52:41.171Z,69.85
2019-03-05T00:53:41.448Z,69.85
2019-03-05T00:54:41.256Z,69.85
2019-03-05T00:55:41.222Z,69.85
2019-03-05T00:56:41.504Z,69.95
2019-03-05T00:57:41.266Z,69.95
2019-03-05T00:58:41.543Z,70.05
2019-03-05T00:59:41.297Z,70.33
2019-03-05T01:00:41.584Z,70.24
2019-03-05T01:01:41.399Z,70.33
2019-03-05T01:02:41.356Z,70.33
2019-03-05T01:03:41.637Z,70.33
2019-03-05T01:04:41.391Z,70.24
2019-03-05T01:05:41.671Z,70.33
2019-03-05T01:06:41.431Z,70.24
2019-03-05T01:07:41.453Z,70.24
2019-03-05T01:08:41.729Z,70.24
2019-03-05T01:09:41.483Z,70.24
2019-03-05T01:10:41.770Z,70.24
2019-03-05T01:11:41.524Z,70.33
2019-03-05T01:12:41.805Z,70.14
2019-03-05T01:13:41.829Z,70.14
2019-03-05T01:14:41.581Z,70.24
2019-03-05T01:15:41.598Z,70.14
2019-03-05T01:16:41.617Z,70.24
2019-03-05T01:17:41.638Z,70.33
2019-03-05T01:18:41.655Z,70.43
2019-03-05T01:19:41.941Z,70.33
2019-03-05T01:20:41.694Z,70.43
2019-03-05T01:21:41.973Z,70.14
2019-03-05T01:22:41.732Z,70.43
2019-03-05T01:23:41.757Z,70.14
2019-03-05T01:24:42.030Z,70.14
2019-03-05T01:25:41.788Z,70.05
2019-03-05T01:26:42.067Z,69.95
2019-03-05T01:27:41.826Z,70.14
2019-03-05T01:28:42.111Z,69.95
2019-03-05T01:29:41.862Z,70.24
2019-03-05T01:30:41.880Z,70.33
2019-03-05T01:31:41.899Z,69.95
2019-03-05T01:32:41.920Z,69.85
2019-03-05T01:33:42.204Z,69.85
2019-03-05T01:34:41.956Z,69.95
2019-03-05T01:35:42.236Z,69.95
2019-03-05T01:36:41.996Z,69.95
2019-03-05T01:37:42.011Z,70.14
2019-03-05T01:38:42.031Z,70.14
2019-03-05T01:39:42.057Z,70.14
2019-03-05T01:40:42.332Z,70.24
2019-03-05T01:41:42.092Z,70.14
2019-03-05T01:42:42.109Z,70.33
2019-03-05T01:43:42.123Z,70.43
2019-03-05T01:44:42.406Z,70.24
2019-03-05T01:45:42.165Z,70.43
2019-03-05T01:46:42.445Z,70.33
2019-03-05T01:47:42.253Z,70.14
2019-03-05T01:48:42.483Z,70.24
2019-03-05T01:49:42.237Z,70.24
2019-03-05T01:50:42.519Z,70.24
2019-03-05T01:51:42.274Z,70.14
2019-03-05T01:52:42.557Z,70.14
2019-03-05T01:53:42.375Z,70.14
2019-03-05T01:54:42.659Z,69.95
2019-03-05T01:55:42.350Z,70.14
2019-03-05T01:56:42.632Z,70.33
2019-03-05T01:57:42.387Z,70.24
2019-03-05T01:58:42.669Z,70.62
2019-03-05T01:59:42.431Z,70.33
2019-03-05T02:00:42.710Z,69.67
2019-03-05T02:01:42.462Z,70.33
2019-03-05T02:02:42.744Z,70.33
2019-03-05T02:03:42.502Z,70.33
2019-03-05T02:04:42.784Z,69.95
2019-03-05T02:05:42.878Z,70.52
2019-03-05T02:06:42.826Z,70.43
2019-03-05T02:07:42.578Z,70.33
2019-03-05T02:08:42.856Z,70.33
2019-03-05T02:09:42.615Z,70.33
2019-03-05T02:10:42.895Z,70.52
2019-03-05T02:11:42.651Z,70.52
2019-03-05T02:12:42.929Z,70.52
2019-03-05T02:13:42.688Z,70.05
2019-03-05T02:14:42.971Z,70.52
2019-03-05T02:15:42.723Z,70.33
2019-03-05T02:16:43.007Z,70.33
2019-03-05T02:17:42.764Z,70.33
2019-03-05T02:18:43.044Z,70.52
2019-03-05T02:19:42.800Z,70.43
2019-03-05T02:20:42.819Z,70.43
2019-03-05T02:21:42.841Z,70.43
2019-03-05T02:22:43.119Z,70.33
2019-03-05T02:23:42.876Z,70.24
2019-03-05T02:24:43.157Z,70.33
2019-03-05T02:25:42.914Z,70.43
2019-03-05T02:26:43.195Z,70.43
2019-03-05T02:27:42.952Z,70.43
2019-03-05T02:28:42.972Z,70.43
2019-03-05T02:29:43.256Z,70.33
2019-03-05T02:30:43.007Z,70.52
2019-03-05T02:31:43.038Z,70.62
2019-03-05T02:32:43.051Z,70.14
2019-03-05T02:33:43.340Z,70.24
2019-03-05T02:34:43.085Z,70.14
2019-03-05T02:35:43.373Z,70.62
2019-03-05T02:36:43.390Z,70.43
2019-03-05T02:37:43.405Z,70.62
2019-03-05T02:38:43.430Z,70.43
2019-03-05T02:39:43.180Z,70.14
2019-03-05T02:40:43.463Z,70.43
2019-03-05T02:41:43.478Z,70.52
2019-03-05T02:42:43.509Z,70.43
2019-03-05T02:43:43.265Z,70.43
2019-03-05T02:44:43.551Z,70.52
2019-03-05T02:45:43.585Z,70.43
2019-03-05T02:46:43.309Z,70.43
2019-03-05T02:47:43.596Z,70.33
2019-03-05T02:48:43.353Z,70.52
2019-03-05T02:49:43.387Z,70.62
2019-03-05T02:50:43.652Z,70.33
2019-03-05T02:51:43.405Z,70.33
2019-03-05T02:52:43.688Z,70.43
2019-03-05T02:53:43.446Z,70.43
2019-03-05T02:54:43.463Z,70.05
2019-03-05T02:55:43.501Z,70.14
2019-03-05T02:56:43.502Z,70.33
2019-03-05T02:57:43.816Z,70.33
2019-03-05T02:58:43.545Z,70.43
2019-03-05T02:59:43.553Z,70.43
2019-03-05T03:00:43.578Z,70.43
2019-03-05T03:01:43.871Z,70.33
2019-03-05T03:02:43.627Z,70.43
2019-03-05T03:03:43.635Z,70.33
2019-03-05T03:04:43.653Z,70.33
2019-03-05T03:05:43.676Z,70.43
2019-03-05T03:06:43.947Z,70.43
2019-03-05T03:07:43.710Z,70.43
2019-03-05T03:08:43.744Z,70.52
2019-03-05T03:09:44.015Z,70.33
2019-03-05T03:10:44.065Z,70.33
2019-03-05T03:11:43.782Z,70.33
2019-03-05T03:12:44.062Z,70.43
2019-03-05T03:13:43.814Z,70.52
2019-03-05T03:14:43.837Z,70.52
2019-03-05T03:15:44.114Z,70.14
2019-03-05T03:16:44.244Z,70.52
2019-03-05T03:17:43.890Z,70.33
2019-03-05T03:18:44.233Z,70.43
2019-03-05T03:19:43.931Z,70.05
2019-03-05T03:20:43.952Z,70.43
2019-03-05T03:21:44.245Z,70.14
2019-03-05T03:22:43.985Z,70.43
2019-03-05T03:23:43.999Z,70.05
2019-03-05T03:24:44.294Z,70.52
2019-03-05T03:25:44.039Z,70.24
2019-03-05T03:26:44.327Z,70.43
2019-03-05T03:27:44.078Z,70.72
2019-03-05T03:28:44.355Z,70.05
2019-03-05T03:29:44.115Z,70.33
2019-03-05T03:30:44.429Z,70.43
2019-03-05T03:31:44.437Z,70.72
2019-03-05T03:32:44.446Z,70.81
2019-03-05T03:33:44.215Z,70.9
2019-03-05T03:34:44.226Z,70.52
2019-03-05T03:35:44.500Z,70.33
2019-03-05T03:36:44.507Z,70.24
2019-03-05T03:37:44.420Z,70.33
2019-03-05T03:38:44.376Z,70.33
2019-03-05T03:39:44.566Z,70.33
2019-03-05T03:40:44.319Z,70.52
2019-03-05T03:41:44.337Z,70.33
2019-03-05T03:42:44.627Z,70.52
2019-03-05T03:43:44.636Z,70.52
2019-03-05T03:44:44.663Z,70.52
2019-03-05T03:45:44.408Z,70.52
2019-03-05T03:46:44.435Z,70.52
2019-03-05T03:47:44.846Z,70.62
2019-03-05T03:48:44.470Z,70.52
2019-03-05T03:49:44.749Z,70.52
2019-03-05T03:50:44.804Z,70.52
2019-03-05T03:51:44.522Z,70.52
2019-03-05T03:52:44.539Z,70.52
2019-03-05T03:53:44.900Z,70.52
2019-03-05T03:54:44.587Z,70.52
2019-03-05T03:55:44.597Z,70.24
2019-03-05T03:56:44.876Z,70.52
2019-03-05T03:57:44.909Z,70.62
2019-03-05T03:58:44.660Z,70.52
2019-03-05T03:59:44.675Z,70.52
2019-03-05T04:00:45.001Z,70.52
2019-03-05T04:01:44.969Z,70.43
2019-03-05T04:02:44.733Z,70.24
2019-03-05T04:03:44.750Z,70.43
2019-03-05T04:04:44.771Z,70.52
2019-03-05T04:05:45.047Z,70.43
2019-03-05T04:06:44.819Z,70.52
2019-03-05T04:07:44.821Z,70.62
2019-03-05T04:08:45.260Z,70.14
2019-03-05T04:09:45.126Z,70.33
2019-03-05T04:10:45.236Z,70.24
2019-03-05T04:11:44.899Z,70.05
2019-03-05T04:12:44.948Z,70.14
2019-03-05T04:13:45.248Z,70.24
2019-03-05T04:14:44.952Z,70.33
2019-03-05T04:15:44.974Z,70.52
2019-03-05T04:16:44.990Z,70.33
2019-03-05T04:17:45.264Z,70.72
2019-03-05T04:18:45.025Z,70.52
2019-03-05T04:19:45.040Z,70.62
2019-03-05T04:20:45.331Z,70.52
2019-03-05T04:21:45.081Z,70.43
2019-03-05T04:22:45.364Z,70.43
2019-03-05T04:23:45.375Z,70.43
2019-03-05T04:24:45.398Z,70.33
2019-03-05T04:25:45.416Z,70.33
2019-03-05T04:26:45.269Z,70.43
2019-03-05T04:27:45.455Z,70.52
2019-03-05T04:28:45.210Z,70.33
2019-03-05T04:29:45.235Z,70.52
2019-03-05T04:30:45.267Z,70.43
2019-03-05T04:31:45.263Z,70.33
2019-03-05T04:32:45.287Z,70.62
2019-03-05T04:33:45.317Z,70.43
2019-03-05T04:34:45.579Z,70.43
2019-03-05T04:35:45.597Z,70.52
2019-03-05T04:36:45.353Z,70.14
2019-03-05T04:37:45.373Z,70.58
2019-03-05T04:38:45.654Z,70.62
2019-03-05T04:39:45.412Z,70.72
2019-03-05T04:40:45.428Z,70.58
2019-03-05T04:41:45.709Z,70.72
2019-03-05T04:42:45.731Z,70.72
2019-03-05T04:43:45.484Z,70.52
2019-03-05T04:44:45.503Z,70.3
2019-03-05T04:45:45.782Z,70.68
2019-03-05T04:46:45.802Z,70.39
2019-03-05T04:47:45.821Z,70.3
2019-03-05T04:48:45.573Z,70.49
2019-03-05T04:49:45.597Z,70.49
2019-03-05T04:50:45.873Z,70.49
2019-03-05T04:51:45.894Z,70.52
2019-03-05T04:52:45.650Z,70.58
2019-03-05T04:53:45.675Z,70.58
2019-03-05T04:54:45.688Z,70.39
2019-03-05T04:55:45.704Z,70.49
2019-03-05T04:56:45.722Z,70.52
2019-03-05T04:57:45.741Z,70.3
2019-03-05T04:58:46.034Z,70.39
2019-03-05T04:59:45.784Z,70.39
2019-03-05T05:00:46.059Z,70.49
2019-03-05T05:01:45.814Z,70.87
2019-03-05T05:02:46.116Z,70.77
2019-03-05T05:03:46.112Z,70.97
2019-03-05T05:04:45.870Z,70.77
2019-03-05T05:05:45.889Z,70.97
2019-03-05T05:06:45.909Z,70.87
2019-03-05T05:07:45.927Z,70.58
2019-03-05T05:08:45.943Z,70.58
2019-03-05T05:09:46.225Z,70.87
2019-03-05T05:10:45.983Z,70.58
2019-03-05T05:11:46.260Z,70.77
2019-03-05T05:12:46.280Z,70.97
2019-03-05T05:13:46.304Z,70.87
2019-03-05T05:14:46.315Z,70.77
2019-03-05T05:15:46.077Z,70.87
2019-03-05T05:16:46.352Z,71.06
2019-03-05T05:17:46.111Z,71.06
2019-03-05T05:18:46.388Z,70.87
2019-03-05T05:19:46.145Z,71.06
2019-03-05T05:20:46.163Z,71.25
2019-03-05T05:21:46.183Z,71.25
2019-03-05T05:22:46.202Z,71.25
2019-03-05T05:23:46.217Z,71.25
2019-03-05T05:24:46.237Z,71.25
2019-03-05T05:25:46.520Z,71.06
2019-03-05T05:26:46.274Z,70.97
2019-03-05T05:27:46.298Z,70.87
2019-03-05T05:28:46.310Z,70.87
2019-03-05T05:29:46.330Z,71.25
2019-03-05T05:30:46.345Z,70.87
2019-03-05T05:31:46.367Z,71.15
2019-03-05T05:32:46.386Z,71.15
2019-03-05T05:33:46.666Z,71.25
2019-03-05T05:34:46.688Z,71.25
2019-03-05T05:35:46.702Z,70.87
2019-03-05T05:36:46.461Z,71.25
2019-03-05T05:37:46.490Z,71.25
2019-03-05T05:38:46.497Z,71.25
2019-03-05T05:39:46.509Z,71.15
2019-03-05T05:40:46.532Z,71.25
2019-03-05T05:41:46.550Z,71.06
2019-03-05T05:42:46.568Z,70.97
2019-03-05T05:43:46.850Z,70.97
2019-03-05T05:44:46.866Z,70.87
2019-03-05T05:45:46.889Z,70.87
2019-03-05T05:46:46.904Z,71.15
2019-03-05T05:47:46.922Z,71.25
2019-03-05T05:48:46.939Z,71.25
2019-03-05T05:49:46.695Z,71.06
2019-03-05T05:50:46.790Z,71.15
2019-03-05T05:51:46.733Z,71.06
2019-03-05T05:52:46.750Z,70.68
2019-03-05T05:53:47.033Z,71.15
2019-03-05T05:54:46.786Z,71.06
2019-03-05T05:55:47.068Z,71.15
2019-03-05T05:56:46.824Z,70.68
2019-03-05T05:57:47.107Z,71.06
2019-03-05T05:58:47.129Z,71.06
2019-03-05T05:59:47.254Z,70.68
2019-03-05T06:00:47.262Z,71.15
2019-03-05T06:01:47.177Z,71.15
2019-03-05T06:02:47.200Z,71.06
2019-03-05T06:03:47.214Z,71.06
2019-03-05T06:04:47.242Z,71.06
2019-03-05T06:05:47.252Z,70.68
2019-03-05T06:06:47.271Z,71.06
2019-03-05T06:07:47.289Z,71.06
2019-03-05T06:08:47.309Z,70.68
2019-03-05T06:09:47.327Z,71.15
2019-03-05T06:10:47.342Z,71.06
2019-03-05T06:11:47.369Z,70.68
2019-03-05T06:12:47.380Z,70.68
2019-03-05T06:13:47.398Z,70.68
2019-03-05T06:14:47.256Z,70.87
2019-03-05T06:15:47.172Z,70.77
2019-03-05T06:16:47.452Z,70.68
2019-03-05T06:17:47.264Z,70.77
2019-03-05T06:18:47.490Z,70.68
2019-03-05T06:19:47.509Z,70.68
2019-03-05T06:20:47.527Z,70.77
2019-03-05T06:21:47.547Z,71.06
2019-03-05T06:22:47.300Z,70.87
2019-03-05T06:23:47.318Z,70.97
2019-03-05T06:24:47.335Z,70.97
2019-03-05T06:25:47.357Z,70.97
2019-03-05T06:26:47.636Z,70.97
2019-03-05T06:27:47.655Z,70.97
2019-03-05T06:28:47.674Z,71.15
2019-03-05T06:29:47.431Z,71.06
2019-03-05T06:30:47.449Z,70.97
2019-03-05T06:31:47.471Z,70.87
2019-03-05T06:32:47.500Z,70.97
2019-03-05T06:33:47.782Z,70.87
2019-03-05T06:34:47.786Z,71.06
2019-03-05T06:35:47.818Z,70.77
2019-03-05T06:36:47.824Z,70.97
2019-03-05T06:37:47.842Z,70.97
2019-03-05T06:38:47.595Z,70.87
2019-03-05T06:39:47.879Z,70.97
2019-03-05T06:40:47.895Z,70.97
2019-03-05T06:41:47.651Z,70.97
2019-03-05T06:42:47.667Z,70.97
2019-03-05T06:43:47.690Z,71.06
2019-03-05T06:44:47.708Z,70.68
2019-03-05T06:45:47.725Z,71.15
2019-03-05T06:46:48.004Z,70.68
2019-03-05T06:47:48.029Z,71.06
2019-03-05T06:48:48.044Z,70.68
2019-03-05T06:49:47.797Z,71.06
2019-03-05T06:50:48.080Z,71.15
2019-03-05T06:51:48.096Z,71.15
2019-03-05T06:52:48.129Z,71.06
2019-03-05T06:53:47.870Z,71.06
2019-03-05T06:54:48.151Z,71.06
2019-03-05T06:55:47.910Z,70.87
2019-03-05T06:56:48.241Z,70.97
2019-03-05T06:57:47.947Z,71.15
2019-03-05T06:58:48.225Z,71.15
2019-03-05T06:59:47.980Z,71.25
2019-03-05T07:00:48.263Z,71.15
2019-03-05T07:01:48.047Z,71.25
2019-03-05T07:02:48.036Z,71.25
2019-03-05T07:03:48.052Z,71.15
2019-03-05T07:04:48.073Z,71.06
2019-03-05T07:05:48.359Z,71.15
2019-03-05T07:06:48.106Z,71.15
2019-03-05T07:07:48.135Z,71.06
2019-03-05T07:08:48.221Z,70.58
2019-03-05T07:09:48.435Z,70.87
2019-03-05T07:10:48.445Z,70.77
2019-03-05T07:11:48.203Z,70.68
2019-03-05T07:12:48.218Z,70.3
2019-03-05T07:13:48.237Z,70.77
2019-03-05T07:14:48.252Z,70.3
2019-03-05T07:15:48.275Z,70.3
2019-03-05T07:16:48.290Z,70.49
2019-03-05T07:17:48.308Z,70.49
2019-03-05T07:18:48.592Z,70.39
2019-03-05T07:19:59.669Z,70.49
2019-03-05T07:20:48.371Z,70.49
2019-03-05T07:21:48.386Z,70.2
2019-03-05T07:22:48.662Z,70.68
2019-03-05T07:23:48.432Z,70.68
2019-03-05T07:24:48.710Z,70.77
2019-03-05T07:25:48.820Z,70.58
2019-03-05T07:26:48.741Z,70.58
2019-03-05T07:27:48.559Z,70.49
2019-03-05T07:28:48.825Z,70.49
2019-03-05T07:29:48.529Z,70.52
2019-03-05T07:30:48.552Z,70.72
2019-03-05T07:31:48.566Z,70.24
2019-03-05T07:32:48.851Z,70.43
2019-03-05T07:33:48.865Z,70.58
2019-03-05T07:34:48.884Z,70.52
2019-03-05T07:35:48.909Z,70.52
2019-03-05T07:36:48.658Z,70.43
2019-03-05T07:37:48.945Z,70.49
2019-03-05T07:38:48.964Z,70.68
2019-03-05T07:39:48.716Z,70.52
2019-03-05T07:40:48.997Z,70.52
2019-03-05T07:41:50.755Z,70.52
2019-03-05T07:42:48.773Z,70.52
2019-03-05T07:43:48.789Z,70.43
2019-03-05T07:44:48.807Z,70.72
2019-03-05T07:45:49.089Z,70.52
2019-03-05T07:46:49.110Z,70.33
2019-03-05T07:47:48.866Z,70.33
2019-03-05T07:48:49.145Z,70.49
2019-03-05T07:49:49.161Z,70.43
2019-03-05T07:50:48.917Z,70.52
2019-03-05T07:51:48.940Z,70.52
2019-03-05T07:52:49.218Z,70.52
2019-03-05T07:53:49.239Z,70.24
2019-03-05T07:54:48.991Z,70.52
2019-03-05T07:55:49.272Z,70.49
2019-03-05T07:56:49.294Z,70.43
2019-03-05T07:57:49.053Z,70.52
2019-03-05T07:58:49.065Z,70.52
2019-03-05T07:59:49.347Z,70.62
2019-03-05T08:00:49.191Z,70.43
2019-03-05T08:01:49.123Z,70.62
2019-03-05T08:02:49.406Z,70.52
2019-03-05T08:03:49.161Z,70.72
2019-03-05T08:04:49.177Z,70.72
2019-03-05T08:05:50.123Z,70.52
2019-03-05T08:06:49.478Z,70.52
2019-03-05T08:07:49.238Z,70.62
2019-03-05T08:08:49.251Z,70.72
2019-03-05T08:09:49.535Z,70.62
2019-03-05T08:10:49.557Z,70.62
2019-03-05T08:11:49.309Z,70.52
2019-03-05T08:12:49.661Z,70.62
2019-03-05T08:13:49.606Z,70.33
2019-03-05T08:14:49.365Z,70.62
2019-03-05T08:15:49.383Z,70.33
2019-03-05T08:16:49.662Z,70.81
2019-03-05T08:17:49.435Z,70.33
2019-03-05T08:18:49.439Z,70.24
2019-03-05T08:19:49.464Z,70.24
2019-03-05T08:20:49.586Z,70.14
2019-03-05T08:21:49.495Z,70.52
2019-03-05T08:22:49.518Z,70.33
2019-03-05T08:23:50.778Z,70.81
2019-03-05T08:24:49.814Z,70.05
2019-03-05T08:25:49.575Z,70.33
2019-03-05T08:26:49.850Z,70.33
2019-03-05T08:27:50.761Z,70.43
2019-03-05T08:28:49.883Z,70.43
2019-03-05T08:29:49.649Z,70.24
2019-03-05T08:30:49.673Z,70.72
2019-03-05T08:31:49.676Z,70.33
2019-03-05T08:32:49.699Z,70.24
2019-03-05T08:33:49.715Z,70.33
2019-03-05T08:34:49.997Z,70.43
2019-03-05T08:35:49.752Z,70.43
2019-03-05T08:36:50.061Z,70.43
2019-03-05T08:37:49.790Z,70.24
2019-03-05T08:38:50.073Z,70.14
2019-03-05T08:39:49.827Z,70.14
2019-03-05T08:40:50.112Z,70.14
2019-03-05T08:41:49.863Z,70.05
2019-03-05T08:42:49.881Z,70.33
2019-03-05T08:43:50.167Z,70.43
2019-03-05T08:44:53.278Z,70.62
2019-03-05T08:45:50.212Z,70.43
2019-03-05T08:46:49.956Z,70.33
2019-03-05T08:47:49.976Z,70.43
2019-03-05T08:48:50.276Z,70.72
2019-03-05T08:49:50.273Z,70.43
2019-03-05T08:50:50.030Z,70.52
2019-03-05T08:51:50.052Z,70.33
2019-03-05T08:52:50.068Z,70.24
2019-03-05T08:53:52.258Z,70.05
2019-03-05T08:54:50.105Z,70.24
2019-03-05T08:55:50.123Z,70.14
2019-03-05T08:56:50.407Z,70.14
2019-03-05T08:57:50.423Z,70.14
2019-03-05T08:58:50.178Z,70.52
2019-03-05T08:59:50.196Z,70.43
2019-03-05T09:00:50.526Z,70.62
2019-03-05T09:01:50.501Z,70.43
2019-03-05T09:02:51.561Z,70.43
2019-03-05T09:03:50.272Z,70.43
2019-03-05T09:04:50.293Z,70.43
2019-03-05T09:05:50.575Z,70.43
2019-03-05T09:06:50.429Z,70.43
2019-03-05T09:07:50.347Z,70.43
2019-03-05T09:08:50.413Z,70.43
2019-03-05T09:09:50.644Z,70.52
2019-03-05T09:10:50.665Z,70.43
2019-03-05T09:11:50.420Z,70.33
2019-03-05T09:12:50.504Z,70.43
2019-03-05T09:13:50.731Z,70.43
2019-03-05T09:14:50.479Z,70.62
2019-03-05T09:15:50.491Z,70.52
2019-03-05T09:16:50.548Z,70.43
2019-03-05T09:17:50.535Z,70.43
2019-03-05T09:18:50.811Z,70.24
2019-03-05T09:19:50.828Z,70.05
2019-03-05T09:20:50.588Z,70.43
2019-03-05T09:21:51.598Z,70.05
2019-03-05T09:22:50.622Z,70.05
2019-03-05T09:23:50.639Z,70.43
2019-03-05T09:24:50.927Z,70.52
2019-03-05T09:25:50.675Z,70.43
2019-03-05T09:26:54.086Z,70.14
2019-03-05T09:27:50.978Z,70.14
2019-03-05T09:28:50.736Z,69.95
2019-03-05T09:29:50.758Z,70.14
2019-03-05T09:30:51.034Z,70.33
2019-03-05T09:31:50.788Z,70.14
2019-03-05T09:32:51.074Z,70.52
2019-03-05T09:33:50.825Z,70.9
2019-03-05T09:34:50.845Z,70.9
2019-03-05T09:35:50.862Z,70.52
2019-03-05T09:36:53.794Z,70.43
2019-03-05T09:37:50.902Z,70.05
2019-03-05T09:38:51.183Z,70.43
2019-03-05T09:39:51.199Z,70.33
2019-03-05T09:40:50.959Z,70.14
2019-03-05T09:41:51.244Z,69.76
2019-03-05T09:42:51.254Z,70.24
2019-03-05T09:43:51.021Z,69.76
2019-03-05T09:44:51.294Z,70.52
2019-03-05T09:45:51.050Z,70.33
2019-03-05T09:46:51.329Z,70.43
2019-03-05T09:47:51.088Z,70.43
2019-03-05T09:48:51.252Z,70.52
2019-03-05T09:49:51.387Z,70.33
2019-03-05T09:50:51.143Z,70.52
2019-03-05T09:51:51.425Z,70.52
2019-03-05T09:52:57.531Z,70.33
2019-03-05T09:53:51.202Z,70.24
2019-03-05T09:54:51.479Z,70.33
2019-03-05T09:55:51.240Z,70.33
2019-03-05T09:56:51.525Z,69.85
2019-03-05T09:57:51.274Z,70.14
2019-03-05T09:58:51.337Z,70.14
2019-03-05T09:59:51.316Z,70.14
2019-03-05T10:00:51.330Z,70.14
2019-03-05T10:01:51.346Z,70.24
2019-03-05T10:02:51.629Z,70.24
2019-03-05T10:03:51.662Z,70.14
2019-03-05T10:04:51.669Z,70.14
2019-03-05T10:05:51.424Z,70.24
2019-03-05T10:06:51.705Z,70.24
2019-03-05T10:07:51.460Z,70.14
2019-03-05T10:08:51.478Z,70.33
2019-03-05T10:09:51.763Z,70.14
2019-03-05T10:10:51.518Z,70.33
2019-03-05T10:11:58.933Z,70.24
2019-03-05T10:12:51.824Z,70.14
2019-03-05T10:13:51.837Z,69.85
2019-03-05T10:14:51.593Z,69.85
2019-03-05T10:15:53.450Z,70.14
2019-03-05T10:16:51.896Z,70.14
2019-03-05T10:17:52.649Z,70.24
2019-03-05T10:18:51.668Z,70.14
2019-03-05T10:19:51.688Z,70.14
2019-03-05T10:20:51.705Z,70.14
2019-03-05T10:21:51.987Z,70.43
2019-03-05T10:22:51.741Z,70.52
2019-03-05T10:23:52.026Z,70.14
2019-03-05T10:24:51.777Z,70.33
2019-03-05T10:25:52.063Z,69.95
2019-03-05T10:26:51.880Z,70.33
2019-03-05T10:27:52.100Z,70.33
2019-03-05T10:28:51.862Z,70.52
2019-03-05T10:29:54.820Z,70.43
2019-03-05T10:30:51.892Z,70.33
2019-03-05T10:31:52.177Z,70.14
2019-03-05T10:32:52.248Z,70.24
2019-03-05T10:33:52.215Z,70.24
2019-03-05T10:34:52.232Z,70.14
2019-03-05T10:35:52.249Z,70.24
2019-03-05T10:36:52.267Z,70.62
2019-03-05T10:37:52.023Z,70.43
2019-03-05T10:38:59.822Z,70.62
2019-03-05T10:39:52.062Z,70.62
2019-03-05T10:40:52.079Z,70.62
2019-03-05T10:41:52.361Z,70.43
2019-03-05T10:42:52.384Z,70.62
2019-03-05T10:43:52.404Z,70.52
2019-03-05T10:44:52.418Z,70.52
2019-03-05T10:45:52.179Z,70.43
2019-03-05T10:46:52.193Z,70.43
2019-03-05T10:47:52.475Z,70.52
2019-03-05T10:48:52.497Z,70.72
2019-03-05T10:49:52.248Z,70.33
2019-03-05T10:50:52.528Z,70.33
2019-03-05T10:51:52.283Z,70.43
2019-03-05T10:52:52.564Z,70.52
2019-03-05T10:53:52.326Z,70.81
2019-03-05T10:54:52.341Z,70.14
2019-03-05T10:55:52.361Z,70.43
2019-03-05T10:56:52.641Z,70.05
2019-03-05T10:57:52.397Z,70.43
2019-03-05T10:58:52.704Z,70.43
2019-03-05T10:59:52.442Z,70.52
2019-03-05T11:00:52.453Z,70.43
2019-03-05T11:01:52.477Z,70.43
2019-03-05T11:02:52.490Z,70.43
2019-03-05T11:03:52.774Z,70.33
2019-03-05T11:04:54.612Z,70.14
2019-03-05T11:05:52.814Z,70.14
2019-03-05T11:06:52.570Z,70.14
2019-03-05T11:07:52.587Z,70.33
2019-03-05T11:08:52.609Z,70.33
2019-03-05T11:09:52.622Z,70.05
2019-03-05T11:10:52.908Z,70.05
2019-03-05T11:11:52.664Z,69.85
2019-03-05T11:12:52.678Z,69.95
2019-03-05T11:13:52.964Z,69.89
2019-03-05T11:14:52.715Z,70.05
2019-03-05T11:15:52.998Z,70.33
2019-03-05T11:16:52.754Z,70.14
2019-03-05T11:17:52.776Z,69.85
2019-03-05T11:18:53.060Z,69.85
2019-03-05T11:19:52.811Z,70.14
2019-03-05T11:20:53.093Z,70.14
2019-03-05T11:21:53.196Z,70.08
2019-03-05T11:22:52.867Z,70.27
2019-03-05T11:23:53.153Z,70.27
2019-03-05T11:24:53.173Z,70.37
2019-03-05T11:25:52.991Z,70.08
2019-03-05T11:26:53.207Z,69.6
2019-03-05T11:27:53.228Z,69.6
2019-03-05T11:28:54.652Z,69.79
2019-03-05T11:29:53.005Z,69.79
2019-03-05T11:30:53.024Z,69.79
2019-03-05T11:31:53.301Z,69.32
2019-03-05T11:32:53.324Z,69.42
2019-03-05T11:33:53.342Z,69.42
2019-03-05T11:34:53.098Z,69.7
2019-03-05T11:35:53.113Z,69.23
2019-03-05T11:36:53.396Z,68.84
2019-03-05T11:37:53.777Z,68.84
2019-03-05T11:38:53.436Z,68.84
2019-03-05T11:39:55.320Z,68.94
2019-03-05T11:40:53.475Z,69.13
2019-03-05T11:41:53.230Z,69.32
2019-03-05T11:42:53.252Z,68.65
2019-03-05T11:43:53.267Z,69.42
2019-03-05T11:45:11.572Z,68.46
2019-03-05T11:45:53.306Z,69.13
2019-03-05T11:46:53.324Z,68.65
2019-03-05T11:47:53.344Z,68.56
2019-03-05T11:48:53.365Z,68.46
2019-03-05T11:49:53.384Z,69.42
2019-03-05T11:50:54.219Z,69.13
2019-03-05T11:51:53.704Z,69.13
2019-03-05T11:52:53.702Z,68.65
2019-03-05T11:53:53.466Z,68.46
2019-03-05T11:54:53.744Z,69.13
2019-03-05T11:55:53.764Z,69.04
2019-03-05T11:56:53.521Z,69.04
2019-03-05T11:57:53.800Z,69.13
2019-03-05T11:58:53.558Z,69.13
2019-03-05T11:59:53.838Z,69.13
2019-03-05T12:00:53.596Z,69.13
2019-03-05T12:01:53.617Z,69.04
2019-03-05T12:02:53.635Z,69.04
2019-03-05T12:03:53.653Z,69.04
2019-03-05T12:04:53.671Z,68.69
2019-03-05T12:05:53.957Z,68.69
2019-03-05T12:06:53.712Z,68.5
2019-03-05T12:07:53.996Z,68.46
2019-03-05T12:08:54.017Z,69.32
2019-03-05T12:09:54.038Z,68.4
2019-03-05T12:10:54.056Z,68.59
2019-03-05T12:11:54.070Z,68.59
2019-03-05T12:12:53.831Z,68.59
2019-03-05T12:13:53.851Z,68.98
2019-03-05T12:14:53.865Z,68.78
2019-03-05T12:15:54.155Z,68.3
2019-03-05T12:16:53.905Z,68.98
2019-03-05T12:17:53.962Z,68.3
2019-03-05T12:18:54.209Z,68.98
2019-03-05T12:19:54.228Z,68.59
2019-03-05T12:20:54.316Z,68.98
2019-03-05T12:21:54.002Z,68.88
2019-03-05T12:22:54.284Z,68.98
2019-03-05T12:23:54.304Z,68.98
2019-03-05T12:24:57.554Z,68.88
2019-03-05T12:25:54.080Z,68.5
2019-03-05T12:26:54.362Z,68.88
2019-03-05T12:27:54.122Z,68.3
2019-03-05T12:28:54.401Z,68.5
2019-03-05T12:29:54.158Z,69.45
2019-03-05T12:30:54.491Z,68.78
2019-03-05T12:31:54.461Z,69.04
2019-03-05T12:32:54.477Z,68.98
2019-03-05T12:33:54.238Z,68.94
2019-03-05T12:34:54.257Z,69.23
2019-03-05T12:35:54.276Z,69.17
2019-03-05T12:36:54.304Z,69.32
2019-03-05T12:37:54.579Z,69.6
2019-03-05T12:38:54.595Z,69.32
2019-03-05T12:39:54.353Z,69.89
2019-03-05T12:40:54.373Z,69.7
2019-03-05T12:41:54.393Z,69.79
2019-03-05T12:42:54.672Z,69.79
2019-03-05T12:43:54.432Z,69.6
2019-03-05T12:44:54.448Z,69.99
2019-03-05T12:45:54.731Z,69.99
2019-03-05T12:46:54.751Z,69.89
2019-03-05T12:47:54.511Z,70.08
2019-03-05T12:48:54.525Z,69.79
2019-03-05T12:49:54.546Z,69.51
2019-03-05T12:50:54.569Z,69.6
2019-03-05T12:51:54.845Z,69.99
2019-03-05T12:52:54.605Z,69.42
2019-03-05T12:53:54.625Z,70.08